首页
METAR-TAF:

METAR-TAF

机场 :

扬斯敦 / Warren, 俄亥俄州, 美国

纬度: 41-15-16N, 经度: 080-40-26W, 海拔: 364米

当前天气观测

该预报发布于1小时和10分钟前的07:51 UTC
风速7节,风向西南
温度 20°C
湿度 68%
气压 1017 hPa
能見度: 16.1公里
少量云层高于10000英尺
少量云层高于25000英尺

METAR: KYNG 260751Z 23007KT 10SM FEW100 FEW250 20/14 A3003 RMK AO2 SLP161 T02000144

时间: 05:01 (09:01 UTC)

预报

该预报发布于3小时和41分钟前的05:20 UTC
预报有效从26日的 06点(UTC)到 27日的 06点(UTC)
风速8节,风向西转西南
能見度: 10公里
散云层高于25000英尺
几率 30%
从 26日的 18点(UTC)到 26日的 22点(UTC)
能見度: 8.0公里
多云层高于5000英尺, 积雨云.
雷暴, 小雨

TAF: KYNG 260520Z 2606/2706 24008KT P6SM SCT250 PROB30 2618/2622 5SM -TSRA BKN050CB

超过4000个机场的气象观测和天气预报(METAR&TAF报告)。

可查询的气象台以黄色和红色小点在地图上表示。

将鼠标移到小点上方,可查看气象台名称。

然后点击查看天气观测和预报。

如需切换地图:点击带黑十字的绿色按钮放大地图;点击带横线的绿色按钮缩小地图;或者点击绿色箭头查看邻近地区的地图。


METAR-TAF: